Time;durP1;ratioP1;P1;durP2;ratioP2;P2;SDS_P1;SDS_P2;PMS_P1;PMS_P2;Temp;Humidity;BMP_temperature;BMP_pressure;BME280_temperature;BME280_humidity;BME280_pressure;Samples;Min_cycle;Max_cycle;Signal;HPM_P1;HPM_P2
2022/04/13 00:01:17;;;;;;;4.85;2.20;;;12.90;96.70;;;;;;5075751;28;20120;-81
2022/04/13 00:03:46;;;;;;;6.20;1.90;;;12.80;96.70;;;;;;5089581;28;20063;-81
2022/04/13 00:06:15;;;;;;;8.18;2.88;;;12.80;96.70;;;;;;5089094;28;20048;-81
2022/04/13 00:08:44;;;;;;;5.90;1.92;;;12.80;96.70;;;;;;5089521;28;20048;-82
2022/04/13 00:11:13;;;;;;;4.82;1.92;;;12.80;96.70;;;;;;5091039;28;20051;-82
2022/04/13 00:13:43;;;;;;;3.55;2.05;;;12.80;96.70;;;;;;5089291;28;20089;-83
2022/04/13 00:16:11;;;;;;;3.80;1.70;;;12.90;96.70;;;;;;5085621;28;20126;-82
2022/04/13 00:18:40;;;;;;;3.63;1.60;;;12.90;96.70;;;;;;5089128;28;20047;-82
2022/04/13 00:21:08;;;;;;;5.50;2.17;;;12.80;96.70;;;;;;5090037;28;20048;-82
2022/04/13 00:23:36;;;;;;;6.10;2.03;;;12.70;96.70;;;;;;5088362;28;20036;-81
2022/04/13 00:26:04;;;;;;;4.32;2.20;;;12.70;96.70;;;;;;5071874;28;20048;-82
2022/04/13 00:28:32;;;;;;;6.80;1.75;;;12.80;96.70;;;;;;5087322;28;20040;-82
2022/04/13 00:31:02;;;;;;;4.68;2.20;;;12.80;96.70;;;;;;5088028;28;20662;-82
2022/04/13 00:33:32;;;;;;;4.40;2.13;;;12.70;96.70;;;;;;5089140;28;20040;-82
2022/04/13 00:36:00;;;;;;;4.38;2.10;;;12.70;96.70;;;;;;5086589;28;20047;-76
2022/04/13 00:38:28;;;;;;;4.18;2.03;;;12.70;96.70;;;;;;5085072;28;20044;-77
2022/04/13 00:40:57;;;;;;;3.78;1.90;;;12.60;96.70;;;;;;5080408;28;20036;-77
2022/04/13 00:43:25;;;;;;;2.50;1.50;;;12.60;96.70;;;;;;5083332;28;20079;-76
2022/04/13 00:45:53;;;;;;;6.40;2.22;;;12.50;96.70;;;;;;5083876;28;20127;-77
2022/04/13 00:48:29;;;;;;;3.97;1.80;;;12.60;96.70;;;;;;5083404;28;20048;-77
2022/04/13 00:50:57;;;;;;;5.97;2.15;;;12.60;96.70;;;;;;5083358;28;20086;-77
2022/04/13 00:53:26;;;;;;;5.22;1.90;;;12.50;96.70;;;;;;5083069;28;20135;-77
2022/04/13 00:55:55;;;;;;;4.78;2.20;;;12.50;96.70;;;;;;5082616;28;20044;-76
2022/04/13 00:58:26;;;;;;;3.92;1.77;;;12.50;96.70;;;;;;5080976;28;20109;-76
2022/04/13 01:00:55;;;;;;;5.03;1.77;;;12.50;96.70;;;;;;5082029;28;20079;-76
2022/04/13 01:03:25;;;;;;;5.45;1.90;;;12.50;96.70;;;;;;5066723;28;20044;-76
2022/04/13 01:05:54;;;;;;;3.90;2.15;;;12.50;96.70;;;;;;5082983;28;20043;-77
2022/04/13 01:08:22;;;;;;;5.32;2.00;;;12.20;96.70;;;;;;5082625;28;20051;-77
2022/04/13 01:10:51;;;;;;;2.40;1.58;;;12.00;96.70;;;;;;5065315;28;20083;-77
2022/04/13 01:13:20;;;;;;;3.60;1.40;;;12.00;96.70;;;;;;5083217;28;20048;-77
2022/04/13 01:15:48;;;;;;;3.20;1.50;;;12.10;96.70;;;;;;5082091;28;20474;-77
2022/04/13 01:18:18;;;;;;;5.53;1.42;;;12.10;96.70;;;;;;5079025;28;20052;-77
2022/04/13 01:20:56;;;;;;;4.13;1.58;;;12.10;96.70;;;;;;5082315;28;20058;-77
2022/04/13 01:23:27;;;;;;;4.78;1.52;;;12.10;96.70;;;;;;5078272;28;20044;-76
2022/04/13 01:25:56;;;;;;;2.85;1.75;;;12.10;96.70;;;;;;5082531;28;20052;-77
2022/04/13 01:28:24;;;;;;;5.18;2.42;;;12.10;96.70;;;;;;5083218;28;20131;-77
2022/04/13 01:30:57;;;;;;;6.90;2.22;;;12.10;96.70;;;;;;5083649;28;20044;-77
2022/04/13 01:33:27;;;;;;;6.20;2.30;;;12.00;96.70;;;;;;5066178;28;20072;-76
2022/04/13 01:36:01;;;;;;;4.22;1.50;;;12.00;96.70;;;;;;5074295;28;20059;-77
2022/04/13 01:38:31;;;;;;;3.33;1.83;;;12.00;96.70;;;;;;5082903;28;20440;-76
2022/04/13 01:40:59;;;;;;;3.00;1.35;;;12.00;96.70;;;;;;5067009;28;20131;-77
2022/04/13 01:43:27;;;;;;;6.43;1.98;;;11.90;96.70;;;;;;5084812;28;20143;-76
2022/04/13 01:45:56;;;;;;;5.45;2.15;;;11.90;96.70;;;;;;5082029;28;20044;-77
2022/04/13 01:48:24;;;;;;;3.80;2.13;;;11.90;96.70;;;;;;5079095;28;20437;-77
2022/04/13 01:50:52;;;;;;;4.38;1.75;;;12.00;96.70;;;;;;5081337;28;20592;-77
2022/04/13 01:53:20;;;;;;;5.53;2.35;;;11.90;96.70;;;;;;5065417;28;20058;-76
2022/04/13 01:55:50;;;;;;;6.50;2.17;;;11.70;96.70;;;;;;5083858;28;20067;-76
2022/04/13 01:58:18;;;;;;;4.18;1.92;;;11.70;96.70;;;;;;5078685;28;20056;-76
2022/04/13 02:00:46;;;;;;;4.43;1.95;;;11.70;96.70;;;;;;5083709;28;20126;-76
2022/04/13 02:03:15;;;;;;;4.05;2.00;;;11.80;96.70;;;;;;5075373;28;20619;-75
2022/04/13 02:05:43;;;;;;;7.10;2.42;;;11.60;96.70;;;;;;5074396;28;20050;-76
2022/04/13 02:08:11;;;;;;;4.95;2.53;;;11.70;96.70;;;;;;5064543;28;20602;-77
2022/04/13 02:10:39;;;;;;;5.50;3.17;;;11.70;96.70;;;;;;5083817;28;20568;-76
2022/04/13 02:13:09;;;;;;;6.38;2.50;;;11.60;96.70;;;;;;5081711;28;20043;-76
2022/04/13 02:15:38;;;;;;;4.90;1.98;;;11.50;96.70;;;;;;5075723;28;20129;-76
2022/04/13 02:18:07;;;;;;;6.13;1.95;;;11.50;96.70;;;;;;5080623;28;20052;-76
2022/04/13 02:20:35;;;;;;;3.97;2.10;;;11.60;96.70;;;;;;5079488;28;20052;-81
2022/04/13 02:23:04;;;;;;;5.05;2.35;;;11.60;96.70;;;;;;5083345;28;20046;-81
2022/04/13 02:25:35;;;;;;;5.20;2.33;;;11.60;96.70;;;;;;5075396;28;20123;-81
2022/04/13 02:28:04;;;;;;;3.70;1.90;;;11.50;96.70;;;;;;5078331;28;20453;-81
2022/04/13 02:30:34;;;;;;;8.27;2.20;;;11.60;96.70;;;;;;5086810;28;20549;-81
2022/04/13 02:33:02;;;;;;;6.22;1.90;;;11.60;96.70;;;;;;5083026;28;21145;-81
2022/04/13 02:35:31;;;;;;;3.65;2.17;;;11.50;96.70;;;;;;5087497;28;20544;-81
2022/04/13 02:38:00;;;;;;;2.80;1.65;;;11.50;96.70;;;;;;5074640;28;20048;-82
2022/04/13 02:40:29;;;;;;;3.42;1.98;;;11.40;96.70;;;;;;5064811;28;20116;-81
2022/04/13 02:42:58;;;;;;;4.57;2.03;;;11.40;96.70;;;;;;5085568;28;20044;-81
2022/04/13 02:45:26;;;;;;;3.92;2.17;;;11.40;96.70;;;;;;5086478;28;20042;-82
2022/04/13 02:47:56;;;;;;;4.13;2.00;;;11.50;96.70;;;;;;5068395;28;20080;-82
2022/04/13 02:50:24;;;;;;;3.92;1.95;;;11.40;96.70;;;;;;5085651;28;20696;-82
2022/04/13 02:52:56;;;;;;;5.22;1.92;;;11.40;96.70;;;;;;5081103;28;20052;-82
2022/04/13 02:55:25;;;;;;;4.88;2.10;;;11.30;96.70;;;;;;5083691;28;20076;-82
2022/04/13 02:57:53;;;;;;;4.90;1.95;;;11.10;96.70;;;;;;5076148;28;20828;-82
2022/04/13 03:00:22;;;;;;;3.65;2.03;;;11.10;96.70;;;;;;5068680;28;20055;-82
2022/04/13 03:02:50;;;;;;;3.40;1.60;;;11.10;96.70;;;;;;5086088;28;20063;-82
2022/04/13 03:05:20;;;;;;;4.50;1.63;;;11.20;96.70;;;;;;5086540;28;20043;-81
2022/04/13 03:07:48;;;;;;;4.57;1.63;;;11.30;96.70;;;;;;5068946;28;20059;-81
2022/04/13 03:10:17;;;;;;;5.25;1.90;;;11.20;96.70;;;;;;5086430;28;20060;-82
2022/04/13 03:12:46;;;;;;;6.70;2.00;;;11.20;96.70;;;;;;5085253;28;20174;-76
2022/04/13 03:15:14;;;;;;;3.40;1.67;;;11.00;96.70;;;;;;5082014;28;20050;-77
2022/04/13 03:17:43;;;;;;;2.60;1.63;;;10.90;96.70;;;;;;5056970;28;20082;-77
2022/04/13 03:20:12;;;;;;;4.13;1.63;;;10.90;96.70;;;;;;5081431;28;20695;-76
2022/04/13 03:22:41;;;;;;;4.85;2.05;;;11.10;96.70;;;;;;5078428;28;20048;-76
2022/04/13 03:25:10;;;;;;;4.50;2.13;;;11.10;96.70;;;;;;5079790;28;20113;-76
2022/04/13 03:27:38;;;;;;;2.55;1.60;;;11.00;96.70;;;;;;5082667;28;20049;-77
2022/04/13 03:30:08;;;;;;;3.42;1.98;;;11.00;96.70;;;;;;5079228;28;20666;-76
2022/04/13 03:32:37;;;;;;;3.58;1.80;;;11.00;96.70;;;;;;5072410;28;20611;-76
2022/04/13 03:35:06;;;;;;;4.97;1.90;;;10.90;96.70;;;;;;5074473;28;20043;-77
2022/04/13 03:37:35;;;;;;;3.22;2.05;;;10.80;96.70;;;;;;5060938;28;20048;-77
2022/04/13 03:40:06;;;;;;;5.10;1.75;;;10.90;96.70;;;;;;5080943;28;20460;-77
2022/04/13 03:42:35;;;;;;;3.30;1.67;;;10.90;96.70;;;;;;5063822;28;20059;-77
2022/04/13 03:45:05;;;;;;;3.80;1.50;;;11.00;96.70;;;;;;5082219;28;20044;-76
2022/04/13 03:47:34;;;;;;;6.53;1.92;;;11.00;96.70;;;;;;5079810;28;20047;-77
2022/04/13 03:50:02;;;;;;;3.80;1.52;;;11.00;96.70;;;;;;5074403;28;20124;-76
2022/04/13 03:52:32;;;;;;;5.18;1.77;;;10.90;96.70;;;;;;5062178;28;20056;-76
2022/04/13 03:55:01;;;;;;;5.55;1.90;;;10.80;96.70;;;;;;5062880;28;20059;-75
2022/04/13 03:57:31;;;;;;;3.67;1.80;;;10.80;96.70;;;;;;5079933;28;20047;-77
2022/04/13 03:59:59;;;;;;;6.95;1.65;;;10.90;96.70;;;;;;5078269;28;20067;-76
2022/04/13 04:02:28;;;;;;;3.50;1.40;;;10.80;96.70;;;;;;5080026;28;20040;-76
2022/04/13 04:04:56;;;;;;;3.22;1.38;;;10.80;96.70;;;;;;5078016;28;20403;-76
2022/04/13 04:07:28;;;;;;;4.15;1.35;;;10.80;96.70;;;;;;5078814;28;20052;-77
2022/04/13 04:09:56;;;;;;;2.95;1.10;;;10.70;96.70;;;;;;5073322;28;20054;-77
2022/04/13 04:12:25;;;;;;;5.28;1.70;;;10.70;96.70;;;;;;5063344;28;20390;-76
2022/04/13 04:14:59;;;;;;;5.07;1.45;;;10.60;96.70;;;;;;5081189;28;20135;-76
2022/04/13 04:17:28;;;;;;;4.55;1.60;;;10.50;96.70;;;;;;5079636;28;20040;-77
2022/04/13 04:19:56;;;;;;;3.22;1.40;;;10.60;96.70;;;;;;5080347;28;20067;-76
2022/04/13 04:22:25;;;;;;;3.95;1.60;;;10.60;96.70;;;;;;5080526;28;20727;-76
2022/04/13 04:24:53;;;;;;;3.22;1.25;;;10.60;96.70;;;;;;5076722;28;20126;-76
2022/04/13 04:27:22;;;;;;;4.15;1.60;;;10.50;96.70;;;;;;5084747;28;20044;-76
2022/04/13 04:29:50;;;;;;;3.13;1.20;;;10.50;96.70;;;;;;5081704;28;20040;-76
2022/04/13 04:32:19;;;;;;;2.63;1.77;;;10.40;96.70;;;;;;5097482;28;20439;-77
2022/04/13 04:34:47;;;;;;;5.18;2.50;;;10.30;96.70;;;;;;5084231;28;20079;-76
2022/04/13 04:37:16;;;;;;;6.88;2.97;;;10.40;96.70;;;;;;5094116;28;20497;-76
2022/04/13 04:39:44;;;;;;;8.55;4.93;;;10.40;96.70;;;;;;5082642;28;20036;-76
2022/04/13 04:42:12;;;;;;;11.10;5.60;;;10.40;96.70;;;;;;5091162;28;20059;-76
2022/04/13 04:44:40;;;;;;;11.40;6.57;;;10.30;96.70;;;;;;5082776;28;20044;-77
2022/04/13 04:47:09;;;;;;;12.23;7.45;;;10.30;96.70;;;;;;5084284;28;20081;-77
2022/04/13 04:49:38;;;;;;;13.65;7.10;;;10.20;96.70;;;;;;5084906;28;20865;-77
2022/04/13 04:52:07;;;;;;;15.38;6.95;;;10.20;96.70;;;;;;5083274;28;20052;-76
2022/04/13 04:54:36;;;;;;;11.90;5.97;;;10.30;96.70;;;;;;5082689;28;20043;-76
2022/04/13 04:57:04;;;;;;;9.18;5.40;;;10.40;96.70;;;;;;5082888;28;20044;-76
2022/04/13 04:59:33;;;;;;;8.68;3.90;;;10.50;96.70;;;;;;5076026;28;20044;-76
2022/04/13 05:02:02;;;;;;;8.43;3.10;;;10.50;96.70;;;;;;5079025;28;20067;-76
2022/04/13 05:04:30;;;;;;;7.32;3.30;;;10.20;96.70;;;;;;5083753;28;20093;-77
2022/04/13 05:07:00;;;;;;;7.38;4.20;;;10.10;96.70;;;;;;5078252;28;20040;-75
2022/04/13 05:09:28;;;;;;;8.88;5.93;;;10.10;96.70;;;;;;5082817;28;20051;-76
2022/04/13 05:12:02;;;;;;;12.48;7.28;;;10.10;96.70;;;;;;5080606;28;20048;-76
2022/04/13 05:14:30;;;;;;;13.13;6.57;;;10.00;96.70;;;;;;5083469;28;20461;-77
2022/04/13 05:16:58;;;;;;;11.77;7.07;;;10.00;96.70;;;;;;5077842;28;20044;-76
2022/04/13 05:19:35;;;;;;;13.93;7.30;;;10.00;96.70;;;;;;5081899;28;20703;-76
2022/04/13 05:22:05;;;;;;;11.35;6.43;;;10.00;96.70;;;;;;5092715;28;20130;-76
2022/04/13 05:24:33;;;;;;;8.55;4.82;;;10.10;96.70;;;;;;5082335;28;20127;-76
2022/04/13 05:27:02;;;;;;;9.27;4.90;;;10.20;96.70;;;;;;5079373;28;20445;-77
2022/04/13 05:29:30;;;;;;;7.38;5.68;;;10.20;96.70;;;;;;5082351;28;20371;-77
2022/04/13 05:31:58;;;;;;;9.90;6.30;;;10.30;96.70;;;;;;5055015;28;20047;-77
2022/04/13 05:34:31;;;;;;;11.35;6.55;;;10.40;96.70;;;;;;5077277;28;20059;-77
2022/04/13 05:37:00;;;;;;;7.90;5.80;;;10.50;96.70;;;;;;5078685;28;20501;-77
2022/04/13 05:39:30;;;;;;;13.05;6.10;;;10.70;96.70;;;;;;5074534;28;20045;-77
2022/04/13 05:41:59;;;;;;;10.52;5.65;;;10.70;96.70;;;;;;5081755;28;20047;-77
2022/04/13 05:44:27;;;;;;;7.60;5.07;;;10.70;96.70;;;;;;5082170;28;20050;-77
2022/04/13 05:46:55;;;;;;;9.35;5.60;;;10.80;96.70;;;;;;5082602;28;20139;-77
2022/04/13 05:49:24;;;;;;;9.68;5.22;;;10.80;96.70;;;;;;5078981;28;20067;-79
2022/04/13 05:51:52;;;;;;;8.15;5.00;;;10.90;96.70;;;;;;5077261;28;20040;-77
2022/04/13 05:54:20;;;;;;;11.18;5.03;;;10.90;96.70;;;;;;5083575;28;20040;-77
2022/04/13 05:56:50;;;;;;;8.07;4.43;;;10.90;96.70;;;;;;5084163;28;20115;-77
2022/04/13 05:59:18;;;;;;;8.02;4.05;;;10.90;96.70;;;;;;5081053;28;20435;-82
2022/04/13 06:01:46;;;;;;;7.75;3.95;;;10.80;96.70;;;;;;5085615;28;20040;-83
2022/04/13 06:04:15;;;;;;;8.43;4.25;;;10.80;96.70;;;;;;5075412;28;20058;-81
2022/04/13 06:06:44;;;;;;;7.90;3.92;;;10.80;96.70;;;;;;5083255;28;20046;-85
2022/04/13 06:09:13;;;;;;;5.82;3.67;;;10.90;96.70;;;;;;5085336;28;20072;-82
2022/04/13 06:11:41;;;;;;;5.05;3.28;;;10.90;96.70;;;;;;5068882;28;20059;-85
2022/04/13 06:14:11;;;;;;;6.75;3.33;;;10.90;96.70;;;;;;5086816;28;20611;-81
2022/04/13 06:16:39;;;;;;;6.40;3.15;;;10.90;96.70;;;;;;5079118;28;20071;-82
2022/04/13 06:19:08;;;;;;;7.10;3.55;;;11.00;96.70;;;;;;5079364;28;20079;-82
2022/04/13 06:21:36;;;;;;;6.72;3.83;;;11.10;96.70;;;;;;5087396;28;20040;-82
2022/04/13 06:24:05;;;;;;;6.50;3.22;;;11.20;96.70;;;;;;5075236;28;20162;-81
2022/04/13 06:26:34;;;;;;;10.13;3.47;;;11.20;96.70;;;;;;5087446;28;20044;-81
2022/04/13 06:29:02;;;;;;;9.90;4.10;;;11.30;96.70;;;;;;5069734;28;20085;-82
2022/04/13 06:31:32;;;;;;;5.50;3.20;;;11.30;96.70;;;;;;5084441;28;20098;-83
2022/04/13 06:34:00;;;;;;;6.93;3.20;;;11.40;96.70;;;;;;5060160;28;20044;-83
2022/04/13 06:36:29;;;;;;;5.85;2.97;;;11.40;96.70;;;;;;5085197;28;20055;-83
2022/04/13 06:38:57;;;;;;;5.38;2.88;;;11.50;96.70;;;;;;5051075;28;20075;-83
2022/04/13 06:41:25;;;;;;;8.23;3.10;;;11.70;96.70;;;;;;5075011;28;20514;-84
2022/04/13 06:43:55;;;;;;;7.95;2.80;;;11.80;96.70;;;;;;5066783;28;20057;-84
2022/04/13 06:46:23;;;;;;;6.38;2.90;;;11.80;96.70;;;;;;5066885;28;20048;-84
2022/04/13 06:48:53;;;;;;;5.90;3.08;;;11.80;96.70;;;;;;5083576;28;20465;-84
2022/04/13 06:51:21;;;;;;;6.70;3.05;;;12.00;96.70;;;;;;5083020;28;20467;-78
2022/04/13 06:53:49;;;;;;;8.02;2.63;;;11.90;96.70;;;;;;5080241;28;20048;-78
2022/04/13 06:56:18;;;;;;;6.03;2.70;;;12.00;96.70;;;;;;5075748;28;20083;-78
2022/04/13 06:58:48;;;;;;;4.78;2.63;;;12.10;96.70;;;;;;5078360;28;20443;-78
2022/04/13 07:01:16;;;;;;;5.65;2.95;;;12.20;96.70;;;;;;5081059;28;20055;-79
2022/04/13 07:03:45;;;;;;;6.88;3.05;;;12.20;96.70;;;;;;5073893;28;20048;-78
2022/04/13 07:06:14;;;;;;;10.45;3.13;;;12.20;96.70;;;;;;5080811;28;20048;-78
2022/04/13 07:09:03;;;;;;;9.95;3.10;;;12.30;96.70;;;;;;5080364;28;20040;-81
2022/04/13 07:11:31;;;;;;;13.40;3.50;;;12.30;96.70;;;;;;5081183;28;20506;-78
2022/04/13 07:13:59;;;;;;;6.60;2.67;;;12.50;96.70;;;;;;5082720;28;20481;-78
2022/04/13 07:16:27;;;;;;;7.82;2.90;;;12.60;96.70;;;;;;5081185;28;20537;-78
2022/04/13 07:18:55;;;;;;;7.45;3.03;;;12.70;96.70;;;;;;5082441;28;20040;-77
2022/04/13 07:21:24;;;;;;;8.90;3.83;;;12.70;96.70;;;;;;5064627;28;20048;-78
2022/04/13 07:24:12;;;;;;;7.07;3.00;;;12.80;96.70;;;;;;5076441;28;20044;-80
2022/04/13 07:26:41;;;;;;;8.50;2.90;;;12.80;96.70;;;;;;5072020;28;20041;-79
2022/04/13 07:29:09;;;;;;;6.95;2.50;;;12.80;96.70;;;;;;5079224;28;20060;-78
2022/04/13 07:31:38;;;;;;;6.03;2.90;;;12.90;96.70;;;;;;5075957;28;20078;-79
2022/04/13 07:34:06;;;;;;;7.68;3.33;;;13.00;96.70;;;;;;5064321;28;20036;-79
2022/04/13 07:36:35;;;;;;;5.22;2.70;;;13.10;96.70;;;;;;5081320;28;20238;-79
2022/04/13 07:39:03;;;;;;;8.80;3.85;;;13.10;96.70;;;;;;5081075;28;20100;-78
2022/04/13 07:41:32;;;;;;;5.13;2.70;;;13.10;96.70;;;;;;5081376;28;20080;-79
2022/04/13 07:44:00;;;;;;;6.28;3.42;;;13.20;96.70;;;;;;5062143;28;20379;-79
2022/04/13 07:46:29;;;;;;;5.60;3.30;;;13.20;96.70;;;;;;5076083;28;20051;-79
2022/04/13 07:48:57;;;;;;;7.40;3.28;;;13.30;96.70;;;;;;5082877;28;20489;-79
2022/04/13 07:51:25;;;;;;;5.30;2.97;;;13.40;96.70;;;;;;5098569;28;20063;-78
2022/04/13 07:53:54;;;;;;;5.38;2.72;;;13.50;96.70;;;;;;5081555;28;20039;-79
2022/04/13 07:56:23;;;;;;;6.63;3.28;;;13.50;96.70;;;;;;5058211;28;20044;-80
2022/04/13 07:58:51;;;;;;;4.93;2.92;;;13.50;96.70;;;;;;5079458;28;20440;-78
2022/04/13 08:01:19;;;;;;;6.05;3.35;;;13.60;96.70;;;;;;5084623;28;20055;-78
2022/04/13 08:03:47;;;;;;;7.93;3.50;;;13.70;96.70;;;;;;5085497;28;20185;-78
2022/04/13 08:06:15;;;;;;;8.18;3.55;;;13.60;96.70;;;;;;5080382;28;20048;-78
2022/04/13 08:08:44;;;;;;;6.72;3.35;;;13.70;96.70;;;;;;5083564;28;20044;-78
2022/04/13 08:11:13;;;;;;;7.75;4.18;;;13.80;96.70;;;;;;5086437;28;20040;-77
2022/04/13 08:13:41;;;;;;;8.50;4.43;;;13.90;96.70;;;;;;5067701;28;20036;-77
2022/04/13 08:16:16;;;;;;;8.23;4.63;;;14.00;96.70;;;;;;5069107;28;20050;-79
2022/04/13 08:18:45;;;;;;;10.20;5.43;;;14.10;96.70;;;;;;5095069;28;20091;-78
2022/04/13 08:21:13;;;;;;;8.55;5.07;;;14.20;96.70;;;;;;5067395;28;20624;-77
2022/04/13 08:23:41;;;;;;;8.73;4.68;;;14.40;96.70;;;;;;5081722;28;20064;-77
2022/04/13 08:26:09;;;;;;;9.75;5.18;;;14.40;96.70;;;;;;5085774;28;20066;-78
2022/04/13 08:28:39;;;;;;;11.30;5.38;;;14.60;96.70;;;;;;5080286;28;20135;-78
2022/04/13 08:31:09;;;;;;;10.63;6.10;;;14.70;96.70;;;;;;5082199;28;20227;-77
2022/04/13 08:33:37;;;;;;;11.80;5.65;;;14.80;96.70;;;;;;5082298;28;20048;-78
2022/04/13 08:36:05;;;;;;;11.38;5.95;;;14.90;96.70;;;;;;5083693;28;20044;-78
2022/04/13 08:38:34;;;;;;;12.48;7.18;;;14.90;96.70;;;;;;5060759;28;20053;-78
2022/04/13 08:41:07;;;;;;;12.95;6.97;;;15.10;96.70;;;;;;5067030;28;20048;-78
2022/04/13 08:43:44;;;;;;;14.15;7.68;;;15.30;96.70;;;;;;5084787;28;20051;-79
2022/04/13 08:46:20;;;;;;;11.95;7.88;;;15.40;96.70;;;;;;5083313;28;20090;-79
2022/04/13 08:48:51;;;;;;;9.60;6.50;;;15.40;96.70;;;;;;5081117;28;20052;-78
2022/04/13 08:51:39;;;;;;;11.10;6.93;;;15.50;96.70;;;;;;5077177;28;20921;-78
2022/04/13 08:54:17;;;;;;;10.57;6.57;;;15.70;96.70;;;;;;5083932;28;20101;-78
2022/04/13 08:56:48;;;;;;;10.40;6.50;;;15.70;96.70;;;;;;5084556;28;20094;-79
2022/04/13 08:59:44;;;;;;;13.35;6.88;;;15.90;96.70;;;;;;5068698;28;20047;-79
2022/04/13 09:02:23;;;;;;;10.90;5.97;;;16.00;96.70;;;;;;5080534;28;20052;-78
2022/04/13 09:04:58;;;;;;;13.70;6.47;;;16.10;96.70;;;;;;5100059;28;20048;-79
2022/04/13 09:07:32;;;;;;;8.48;6.00;;;15.90;96.70;;;;;;5082310;28;20064;-80
2022/04/13 09:10:03;;;;;;;9.82;5.63;;;15.90;96.70;;;;;;5067792;28;20052;-81
2022/04/13 09:12:33;;;;;;;9.43;4.72;;;16.10;96.70;;;;;;5072824;28;20044;-79
2022/04/13 09:15:05;;;;;;;6.85;3.97;;;16.20;96.70;;;;;;5079663;28;20090;-78
2022/04/13 09:17:35;;;;;;;6.82;4.10;;;16.40;96.70;;;;;;5083321;28;20328;-79
2022/04/13 09:20:03;;;;;;;7.55;4.28;;;16.60;96.70;;;;;;5084247;28;20119;-78
2022/04/13 09:22:32;;;;;;;7.70;4.35;;;16.80;96.70;;;;;;5083267;28;20067;-80
2022/04/13 09:25:01;;;;;;;8.23;4.80;;;16.90;96.70;;;;;;5072254;28;20565;-79
2022/04/13 09:27:31;;;;;;;8.80;5.20;;;16.90;96.70;;;;;;5078854;28;20570;-79
2022/04/13 09:30:00;;;;;;;10.20;5.07;;;17.00;96.70;;;;;;5082989;28;20052;-79
2022/04/13 09:32:31;;;;;;;10.05;4.80;;;17.00;96.70;;;;;;5064094;28;20715;-79
2022/04/13 09:35:00;;;;;;;9.20;5.00;;;17.00;96.70;;;;;;5083620;28;20127;-79
2022/04/13 09:37:29;;;;;;;9.90;5.65;;;17.10;96.70;;;;;;5085341;28;20385;-82
2022/04/13 09:39:58;;;;;;;8.02;4.30;;;17.30;96.70;;;;;;5088979;28;20071;-84
2022/04/13 09:42:29;;;;;;;6.38;4.38;;;17.60;96.70;;;;;;5079147;28;20056;-84
2022/04/13 09:45:03;;;;;;;7.07;4.85;;;17.80;96.70;;;;;;5085999;28;20047;-85
2022/04/13 09:47:33;;;;;;;8.40;4.80;;;17.80;96.70;;;;;;5088111;28;20040;-84
2022/04/13 09:50:02;;;;;;;8.32;4.43;;;17.90;96.70;;;;;;5087956;28;20569;-85
2022/04/13 09:52:33;;;;;;;7.68;4.30;;;17.80;96.70;;;;;;5089308;28;20476;-85
2022/04/13 09:55:05;;;;;;;6.45;3.80;;;17.90;96.70;;;;;;5081438;28;20048;-84
2022/04/13 09:57:34;;;;;;;6.88;4.15;;;17.90;96.70;;;;;;5087311;28;20056;-87
2022/04/13 10:00:04;;;;;;;6.88;4.00;;;18.20;96.70;;;;;;5081798;28;20044;-84
2022/04/13 10:02:41;;;;;;;7.13;4.03;;;18.30;96.70;;;;;;5088881;28;20511;-84
2022/04/13 10:05:21;;;;;;;7.32;3.72;;;18.40;96.70;;;;;;5070924;28;20048;-85
2022/04/13 10:08:01;;;;;;;9.43;4.22;;;18.60;96.70;;;;;;5076731;28;20143;-84
2022/04/13 10:10:30;;;;;;;5.85;3.38;;;18.90;96.70;;;;;;5087760;28;20048;-84
2022/04/13 10:12:58;;;;;;;5.82;3.72;;;18.90;96.70;;;;;;5064767;28;20109;-85
2022/04/13 10:15:26;;;;;;;5.05;3.08;;;18.70;96.70;;;;;;5079139;28;20036;-83
2022/04/13 10:18:00;;;;;;;6.90;3.33;;;18.60;96.70;;;;;;5087121;28;20162;-83
2022/04/13 10:20:41;;;;;;;7.88;3.05;;;19.10;96.70;;;;;;5086200;28;20489;-84
2022/04/13 10:23:10;;;;;;;7.10;2.95;;;19.40;96.70;;;;;;5083190;28;20535;-85
2022/04/13 10:25:39;;;;;;;5.50;2.88;;;19.60;96.70;;;;;;5088815;28;20044;-85
2022/04/13 10:28:10;;;;;;;4.93;3.00;;;19.70;96.70;;;;;;5070643;28;20048;-85
2022/04/13 10:30:39;;;;;;;5.57;2.95;;;19.70;96.70;;;;;;5087339;28;20101;-85
2022/04/13 10:33:10;;;;;;;3.90;2.47;;;20.00;96.70;;;;;;5086923;28;20040;-85
2022/04/13 10:35:42;;;;;;;4.10;2.60;;;20.20;96.70;;;;;;5087282;28;20052;-84
2022/04/13 10:38:12;;;;;;;4.47;2.60;;;20.20;96.70;;;;;;5080568;28;20051;-83
2022/04/13 10:40:42;;;;;;;4.90;2.50;;;20.30;96.70;;;;;;5078339;28;20044;-83
2022/04/13 10:43:13;;;;;;;4.35;2.45;;;20.50;96.70;;;;;;5086614;28;20047;-85
2022/04/13 10:45:45;;;;;;;5.20;2.50;;;20.40;96.70;;;;;;5087036;28;20032;-84
2022/04/13 10:48:19;;;;;;;4.75;2.50;;;20.30;96.70;;;;;;5085990;28;20055;-84
2022/04/13 10:50:53;;;;;;;4.13;2.35;;;20.50;96.70;;;;;;5084659;28;20036;-85
2022/04/13 10:53:25;;;;;;;7.82;2.83;;;20.80;96.70;;;;;;5056652;28;20052;-84
2022/04/13 10:55:59;;;;;;;4.00;2.67;;;20.90;96.70;;;;;;5065140;28;20051;-83
2022/04/13 10:58:43;;;;;;;3.53;2.50;;;20.80;96.70;;;;;;5085967;28;20052;-84
2022/04/13 11:01:13;;;;;;;5.68;2.67;;;21.20;96.70;;;;;;5084185;28;20413;-85
2022/04/13 11:03:43;;;;;;;4.47;2.38;;;21.30;96.70;;;;;;5086651;28;20048;-85
2022/04/13 11:06:12;;;;;;;7.80;2.92;;;21.30;96.70;;;;;;5086361;28;20048;-85
2022/04/13 11:08:51;;;;;;;5.93;2.78;;;21.20;96.70;;;;;;5070069;28;20048;-85
2022/04/13 11:11:22;;;;;;;4.75;2.33;;;21.10;96.70;;;;;;5082320;28;20493;-84
2022/04/13 11:13:52;;;;;;;5.53;2.47;;;21.20;96.70;;;;;;5086904;28;20047;-85
2022/04/13 11:16:22;;;;;;;3.60;2.15;;;21.30;96.70;;;;;;5086335;28;20058;-85
2022/04/13 11:19:23;;;;;;;7.75;3.05;;;21.30;94.80;;;;;;5081401;28;20040;-85
2022/04/13 11:22:10;;;;;;;3.83;2.40;;;21.60;94.40;;;;;;5079026;28;20342;-85
2022/04/13 11:24:40;;;;;;;3.22;2.20;;;21.80;95.90;;;;;;5078967;28;20198;-84
2022/04/13 11:27:10;;;;;;;3.83;1.60;;;21.70;95.10;;;;;;5086359;28;20048;-85
2022/04/13 11:29:43;;;;;;;4.43;1.88;;;21.90;93.00;;;;;;5082771;28;20529;-85
2022/04/13 11:32:13;;;;;;;3.67;1.70;;;22.40;93.40;;;;;;5081531;28;20050;-85
2022/04/13 11:34:57;;;;;;;3.72;1.98;;;22.80;92.50;;;;;;5090500;28;20119;-86
2022/04/13 11:37:40;;;;;;;4.90;2.22;;;22.90;91.10;;;;;;5081356;28;20444;-85
2022/04/13 11:40:11;;;;;;;4.28;2.13;;;23.10;91.40;;;;;;5083341;28;20059;-84
2022/04/13 11:42:52;;;;;;;3.05;1.63;;;23.30;89.10;;;;;;5091210;28;20047;-84
2022/04/13 11:45:22;;;;;;;1.85;1.30;;;23.40;89.10;;;;;;5089576;28;20059;-86
2022/04/13 11:47:58;;;;;;;4.28;2.10;;;23.40;89.40;;;;;;5071647;28;20126;-85
2022/04/13 11:50:32;;;;;;;3.40;1.70;;;23.50;88.60;;;;;;5078465;28;20044;-84
2022/04/13 11:53:03;;;;;;;3.33;1.63;;;23.50;87.30;;;;;;5072205;28;20127;-86
2022/04/13 11:55:35;;;;;;;4.28;1.50;;;23.50;85.50;;;;;;5090089;28;20043;-84
2022/04/13 11:58:21;;;;;;;2.65;1.60;;;23.50;85.60;;;;;;5086314;28;20059;-85
2022/04/13 12:00:52;;;;;;;3.55;1.50;;;23.50;85.90;;;;;;5073584;28;20044;-84
2022/04/13 12:03:23;;;;;;;2.50;1.60;;;23.70;86.10;;;;;;5090978;28;20300;-84
2022/04/13 12:05:58;;;;;;;4.22;1.50;;;23.70;86.20;;;;;;5070905;28;20056;-85
2022/04/13 12:08:27;;;;;;;2.58;1.52;;;23.70;85.50;;;;;;5059769;28;20052;-84
2022/04/13 12:10:57;;;;;;;6.32;1.75;;;23.90;85.60;;;;;;5085671;28;20048;-84
2022/04/13 12:13:26;;;;;;;2.53;1.60;;;24.00;85.10;;;;;;5090209;28;20064;-84
2022/04/13 12:15:56;;;;;;;2.55;1.50;;;24.00;85.00;;;;;;5083384;28;20115;-84
2022/04/13 12:18:25;;;;;;;2.88;1.77;;;23.60;84.30;;;;;;5089450;28;20803;-85
2022/04/13 12:21:07;;;;;;;3.08;1.40;;;23.40;85.00;;;;;;5090643;28;20045;-85
2022/04/13 12:23:35;;;;;;;2.70;1.63;;;23.40;84.40;;;;;;5080997;28;20056;-85
2022/04/13 12:26:04;;;;;;;2.03;1.50;;;23.50;84.90;;;;;;5072881;28;20071;-85
2022/04/13 12:28:33;;;;;;;3.63;1.70;;;23.90;84.70;;;;;;5075742;28;20090;-83
2022/04/13 12:31:03;;;;;;;3.00;1.63;;;24.10;83.50;;;;;;5064742;28;20076;-84
2022/04/13 12:33:32;;;;;;;5.10;1.30;;;24.10;85.00;;;;;;5089396;28;20052;-85
2022/04/13 12:36:04;;;;;;;2.58;1.60;;;24.10;83.90;;;;;;5069474;28;20040;-85
2022/04/13 12:38:33;;;;;;;2.15;1.52;;;24.20;83.60;;;;;;5069401;28;20066;-85
2022/04/13 12:41:11;;;;;;;2.47;1.30;;;24.30;83.60;;;;;;5084197;28;20048;-84
2022/04/13 12:43:41;;;;;;;3.45;1.40;;;24.10;82.00;;;;;;5079676;28;20084;-83
2022/04/13 12:46:14;;;;;;;4.85;2.10;;;24.20;81.30;;;;;;5080380;28;20051;-83
2022/04/13 12:48:44;;;;;;;3.33;1.60;;;24.40;82.50;;;;;;5080699;28;20573;-84
2022/04/13 12:51:15;;;;;;;3.60;1.50;;;24.40;83.20;;;;;;5081616;28;20048;-84
2022/04/13 12:53:53;;;;;;;4.70;1.90;;;24.40;82.60;;;;;;5088841;28;20056;-81
2022/04/13 12:56:24;;;;;;;4.22;2.25;;;24.30;82.70;;;;;;5087026;28;20104;-82
2022/04/13 12:58:53;;;;;;;2.83;1.52;;;24.20;82.20;;;;;;5089948;28;20060;-82
2022/04/13 13:01:26;;;;;;;2.78;1.55;;;24.20;82.20;;;;;;5069869;28;20040;-82